createdAt,value
2018-07-06T00:01:35.245Z,101403.06
2018-07-06T00:04:14.893Z,101402.13
2018-07-06T00:06:54.445Z,101408.66
2018-07-06T00:09:34.076Z,101398.88
2018-07-06T00:12:13.745Z,101401.31
2018-07-06T00:14:53.413Z,101395.77
2018-07-06T00:17:32.977Z,101402.30
2018-07-06T00:20:12.569Z,101403.78
2018-07-06T00:22:52.053Z,101405.68
2018-07-06T00:25:31.893Z,101407.08
2018-07-06T00:28:11.481Z,101398.73
2018-07-06T00:30:50.984Z,101395.02
2018-07-06T00:33:30.418Z,101396.03
2018-07-06T00:36:09.950Z,101403.03
2018-07-06T00:38:49.425Z,101404.95
2018-07-06T00:41:28.805Z,101408.72
2018-07-06T00:44:08.330Z,101395.80
2018-07-06T00:46:47.985Z,101399.55
2018-07-06T00:49:27.757Z,101394.60
2018-07-06T00:52:07.632Z,101400.41
2018-07-06T00:54:47.297Z,101400.02
2018-07-06T00:57:26.765Z,101394.94
2018-07-06T01:00:06.326Z,101395.30
2018-07-06T01:02:45.864Z,101385.02
2018-07-06T01:05:25.421Z,101393.64
2018-07-06T01:08:04.949Z,101397.95
2018-07-06T01:10:44.445Z,101394.69
2018-07-06T01:13:24.261Z,101388.51
2018-07-06T01:16:03.841Z,101392.20
2018-07-06T01:18:43.311Z,101390.90
2018-07-06T01:21:22.995Z,101387.09
2018-07-06T01:24:02.699Z,101389.06
2018-07-06T01:26:42.356Z,101386.95
2018-07-06T01:29:22.888Z,101386.67
2018-07-06T01:32:02.476Z,101388.69
2018-07-06T01:34:41.893Z,101389.14
2018-07-06T01:37:21.421Z,101391.97
2018-07-06T01:40:01.065Z,101391.88
2018-07-06T01:42:41.658Z,101391.90
2018-07-06T01:45:21.173Z,101396.78
2018-07-06T01:48:00.753Z,101397.33
2018-07-06T01:50:40.334Z,101396.68
2018-07-06T01:53:19.905Z,101404.05
2018-07-06T01:55:59.637Z,101403.69
2018-07-06T01:58:40.146Z,101401.91
2018-07-06T02:01:19.691Z,101409.92
2018-07-06T02:03:59.492Z,101396.41
2018-07-06T02:06:39.082Z,101399.77
2018-07-06T02:09:18.573Z,101405.27
2018-07-06T02:11:58.017Z,101400.95
2018-07-06T02:14:38.644Z,101405.45
2018-07-06T02:17:18.289Z,101392.08
2018-07-06T02:19:57.940Z,101394.73
2018-07-06T02:22:37.718Z,101393.02
2018-07-06T02:25:17.387Z,101400.95
2018-07-06T02:27:56.973Z,101384.03
2018-07-06T02:30:36.525Z,101396.01
2018-07-06T02:33:16.223Z,101390.39
2018-07-06T02:35:55.864Z,101401.89
2018-07-06T02:38:35.521Z,101392.95
2018-07-06T02:41:15.097Z,101397.73
2018-07-06T02:43:54.805Z,101408.76
2018-07-06T02:46:34.556Z,101402.00
2018-07-06T02:49:14.242Z,101396.70
2018-07-06T02:51:53.933Z,101396.27
2018-07-06T02:54:33.604Z,101401.55
2018-07-06T02:57:13.209Z,101399.24
2018-07-06T02:59:52.798Z,101407.82
2018-07-06T03:02:32.342Z,101392.78
2018-07-06T03:05:11.885Z,101401.05
2018-07-06T03:07:51.689Z,101406.37
2018-07-06T03:10:31.261Z,101405.28
2018-07-06T03:13:10.974Z,101404.77
2018-07-06T03:15:50.645Z,101403.14
2018-07-06T03:18:30.250Z,101406.09
2018-07-06T03:21:09.766Z,101420.73
2018-07-06T03:23:49.534Z,101407.20
2018-07-06T03:26:29.219Z,101424.45
2018-07-06T03:29:08.677Z,101419.25
2018-07-06T03:31:48.202Z,101410.32
2018-07-06T03:34:27.885Z,101406.74
2018-07-06T03:37:07.384Z,101416.08
2018-07-06T03:39:47.021Z,101419.23
2018-07-06T03:42:26.664Z,101422.48
2018-07-06T03:45:06.210Z,101420.30
2018-07-06T03:47:45.765Z,101429.38
2018-07-06T03:50:25.445Z,101428.16
2018-07-06T03:53:05.121Z,101435.42
2018-07-06T03:55:44.829Z,101435.11
2018-07-06T03:58:24.535Z,101446.03
2018-07-06T04:01:04.287Z,101443.87
2018-07-06T04:03:44.017Z,101449.42
2018-07-06T04:06:24.678Z,101444.91
2018-07-06T04:09:05.221Z,101440.20
2018-07-06T04:11:44.997Z,101441.34
2018-07-06T04:14:25.709Z,101443.72
2018-07-06T04:17:05.360Z,101452.12
2018-07-06T04:19:44.925Z,101451.71
2018-07-06T04:22:24.476Z,101451.92
2018-07-06T04:25:03.961Z,101454.44
2018-07-06T04:27:43.599Z,101452.64
2018-07-06T04:30:23.281Z,101461.80
2018-07-06T04:33:02.819Z,101456.74
2018-07-06T04:35:42.369Z,101462.31
2018-07-06T04:38:22.033Z,101468.81
2018-07-06T04:41:01.531Z,101478.16
2018-07-06T04:43:40.993Z,101473.95
2018-07-06T04:46:20.623Z,101479.05
2018-07-06T04:49:00.253Z,101483.02
2018-07-06T04:51:39.797Z,101481.11
2018-07-06T04:54:19.346Z,101489.16
2018-07-06T04:56:58.860Z,101482.03
2018-07-06T04:59:38.402Z,101481.60
2018-07-06T05:02:17.942Z,101476.34
2018-07-06T05:04:57.385Z,101474.44
2018-07-06T05:07:36.947Z,101484.37
2018-07-06T05:10:16.428Z,101475.45
2018-07-06T05:12:56.674Z,101486.17
2018-07-06T05:15:36.197Z,101478.38
2018-07-06T05:18:15.721Z,101479.59
2018-07-06T05:20:55.283Z,101496.94
2018-07-06T05:23:34.910Z,101490.16
2018-07-06T05:26:14.429Z,101497.36
2018-07-06T05:28:53.905Z,101495.38
2018-07-06T05:31:35.625Z,101497.20
2018-07-06T05:34:15.340Z,101502.79
2018-07-06T05:36:55.330Z,101505.77
2018-07-06T05:39:34.765Z,101502.97
2018-07-06T05:42:14.381Z,101506.08
2018-07-06T05:44:53.978Z,101511.15
2018-07-06T05:47:33.689Z,101512.44
2018-07-06T05:50:13.463Z,101509.89
2018-07-06T05:52:53.165Z,101544.61
2018-07-06T05:55:32.726Z,101521.45
2018-07-06T05:58:12.261Z,101523.91
2018-07-06T06:00:51.809Z,101524.01
2018-07-06T06:03:31.377Z,101526.63
2018-07-06T06:06:11.926Z,101531.28
2018-07-06T06:08:39.100Z,101535.06
2018-07-06T06:11:08.460Z,101537.02
2018-07-06T06:13:36.942Z,101539.03
2018-07-06T06:16:05.887Z,101542.83
2018-07-06T06:18:35.340Z,101537.98
2018-07-06T06:21:03.633Z,101540.41
2018-07-06T06:23:31.893Z,101540.00
2018-07-06T06:26:00.150Z,101542.86
2018-07-06T06:28:28.445Z,101533.35
2018-07-06T06:30:56.722Z,101536.91
2018-07-06T06:33:25.178Z,101542.64
2018-07-06T06:35:53.388Z,101539.09
2018-07-06T06:38:21.869Z,101515.36
2018-07-06T06:40:50.173Z,101544.50
2018-07-06T06:43:18.493Z,101550.42
2018-07-06T06:45:46.777Z,101543.98
2018-07-06T06:48:15.107Z,101535.28
2018-07-06T06:50:43.459Z,101536.45
2018-07-06T06:53:11.860Z,101542.30
2018-07-06T06:55:40.101Z,101544.30
2018-07-06T06:58:08.524Z,101546.36
2018-07-06T07:00:36.845Z,101541.72
2018-07-06T07:03:05.229Z,101542.03
2018-07-06T07:05:33.615Z,101550.28
2018-07-06T07:08:01.916Z,101549.08
2018-07-06T07:10:30.181Z,101546.55
2018-07-06T07:12:58.490Z,101552.78
2018-07-06T07:15:28.104Z,101537.89
2018-07-06T07:17:56.405Z,101548.21
2018-07-06T07:20:24.714Z,101548.48
2018-07-06T07:22:52.985Z,101564.41
2018-07-06T07:25:21.265Z,101554.88
2018-07-06T07:27:49.581Z,101520.41
2018-07-06T07:30:17.885Z,101550.41
2018-07-06T07:32:46.277Z,101546.22
2018-07-06T07:35:15.728Z,101535.24
2018-07-06T07:37:44.292Z,101537.23
2018-07-06T07:40:12.597Z,101545.20
2018-07-06T07:42:41.050Z,101545.80
2018-07-06T07:45:09.365Z,101542.95
2018-07-06T07:47:37.662Z,101568.94
2018-07-06T07:50:05.965Z,101557.25
2018-07-06T07:53:45.261Z,101563.96
2018-07-06T07:56:14.700Z,101546.94
2018-07-06T07:58:42.985Z,101551.64
2018-07-06T08:01:11.327Z,101546.53
2018-07-06T08:03:39.881Z,101554.42
2018-07-06T08:06:08.197Z,101550.96
2018-07-06T08:10:05.603Z,101565.23
2018-07-06T08:12:33.944Z,101559.64
2018-07-06T08:15:02.256Z,101560.64
2018-07-06T08:17:30.561Z,101558.98
2018-07-06T08:19:58.845Z,101544.05
2018-07-06T08:22:27.145Z,101557.13
2018-07-06T08:24:55.418Z,101557.83
2018-07-06T08:27:23.716Z,101567.31
2018-07-06T08:29:51.993Z,101568.61
2018-07-06T08:32:20.277Z,101566.25
2018-07-06T08:35:00.028Z,101571.45
2018-07-06T08:37:45.683Z,101576.10
2018-07-06T08:40:14.193Z,101565.64
2018-07-06T08:42:44.035Z,101567.95
2018-07-06T08:45:12.588Z,101571.44
2018-07-06T08:47:41.097Z,101581.94
2018-07-06T08:50:09.753Z,101569.60
2018-07-06T08:52:38.879Z,101574.59
2018-07-06T08:55:07.653Z,101584.09
2018-07-06T08:57:36.753Z,101584.74
2018-07-06T09:00:05.078Z,101585.73
2018-07-06T09:02:33.345Z,101596.55
2018-07-06T09:05:02.095Z,101585.56
2018-07-06T09:07:30.549Z,101588.89
2018-07-06T09:09:59.682Z,101588.74
2018-07-06T09:12:28.097Z,101591.38
2018-07-06T09:14:56.840Z,101574.27
2018-07-06T09:17:25.305Z,101586.21
2018-07-06T09:19:54.556Z,101586.92
2018-07-06T09:22:22.825Z,101590.71
2018-07-06T09:24:52.434Z,101600.52
2018-07-06T09:27:20.831Z,101596.44
2018-07-06T09:29:49.172Z,101597.33
2018-07-06T09:32:17.453Z,101598.04
2018-07-06T09:34:45.729Z,101594.48
2018-07-06T09:37:14.202Z,101594.41
2018-07-06T09:39:43.460Z,101597.09
2018-07-06T09:42:11.861Z,101594.86
2018-07-06T09:44:40.138Z,101588.99
2018-07-06T09:47:08.790Z,101592.19
2018-07-06T09:49:38.106Z,101604.40
2018-07-06T09:52:06.385Z,101591.86
2018-07-06T09:54:34.773Z,101594.31
2018-07-06T09:57:03.037Z,101555.81
2018-07-06T09:59:31.332Z,101596.11
2018-07-06T10:02:00.918Z,101595.52
2018-07-06T10:04:29.255Z,101597.83
2018-07-06T10:06:57.573Z,101593.03
2018-07-06T10:09:25.834Z,101582.52
2018-07-06T10:11:54.264Z,101602.36
2018-07-06T10:14:22.580Z,101598.61
2018-07-06T10:16:51.061Z,101597.64
2018-07-06T10:19:19.551Z,101604.17
2018-07-06T10:21:47.818Z,101606.31
2018-07-06T10:24:16.084Z,101601.55
2018-07-06T10:26:44.385Z,101646.09
2018-07-06T10:29:23.804Z,101591.20
2018-07-06T10:32:26.798Z,101605.13
2018-07-06T10:34:55.650Z,101607.80
2018-07-06T10:37:24.196Z,101654.34
2018-07-06T10:39:52.976Z,101608.38
2018-07-06T10:42:21.224Z,101603.59
2018-07-06T10:44:49.489Z,101624.09
2018-07-06T10:47:17.813Z,101611.14
2018-07-06T10:49:46.158Z,101616.23
2018-07-06T10:52:15.179Z,101615.60
2018-07-06T10:54:44.253Z,101616.19
2018-07-06T10:57:12.553Z,101616.92
2018-07-06T10:59:40.820Z,101621.80
2018-07-06T11:02:09.492Z,101601.19
2018-07-06T11:04:37.753Z,101613.75
2018-07-06T11:07:06.273Z,101630.20
2018-07-06T11:09:34.647Z,101610.71
2018-07-06T11:12:02.941Z,101615.78
2018-07-06T11:14:31.265Z,101615.66
2018-07-06T11:16:59.897Z,101617.19
2018-07-06T11:19:28.166Z,101623.86
2018-07-06T11:21:56.500Z,101586.10
2018-07-06T11:24:24.805Z,101627.34
2018-07-06T11:26:53.081Z,101628.97
2018-07-06T11:29:21.373Z,101625.34
2018-07-06T11:31:49.658Z,101629.91
2018-07-06T11:34:17.921Z,101628.44
2018-07-06T11:36:46.293Z,101631.70
2018-07-06T11:39:14.885Z,101636.90
2018-07-06T11:41:43.232Z,101638.49
2018-07-06T11:44:11.498Z,101641.43
2018-07-06T11:46:39.994Z,101647.78
2018-07-06T11:49:08.273Z,101646.49
2018-07-06T11:51:36.534Z,101657.09
2018-07-06T11:54:04.913Z,101652.32
2018-07-06T11:56:33.209Z,101648.37
2018-07-06T11:59:01.469Z,101661.70
2018-07-06T12:01:29.730Z,101660.75
2018-07-06T12:03:58.014Z,101664.45
2018-07-06T12:06:26.292Z,101658.80
2018-07-06T12:08:54.593Z,101663.11
2018-07-06T12:11:22.873Z,101660.50
2018-07-06T12:13:51.142Z,101670.83
2018-07-06T12:16:19.411Z,101657.26
2018-07-06T12:18:47.725Z,101671.17
2018-07-06T12:21:16.097Z,101657.14
2018-07-06T12:23:44.253Z,101642.56
2018-07-06T12:26:12.516Z,101714.05
2018-07-06T12:28:40.841Z,101673.17
2018-07-06T12:31:09.121Z,101673.97
2018-07-06T12:33:37.409Z,101674.70
2018-07-06T12:36:05.709Z,101663.39
2018-07-06T12:38:33.983Z,101669.98
2018-07-06T12:41:02.237Z,101672.09
2018-07-06T12:43:30.541Z,101681.98
2018-07-06T12:45:58.813Z,101681.84
2018-07-06T12:48:27.074Z,101687.77
2018-07-06T12:50:55.593Z,101700.77
2018-07-06T12:53:23.861Z,101683.33
2018-07-06T12:55:52.128Z,101674.66
2018-07-06T12:58:20.519Z,101686.61
2018-07-06T13:00:48.798Z,101689.81
2018-07-06T13:03:17.073Z,101697.60
2018-07-06T13:05:45.326Z,101692.02
2018-07-06T13:08:13.621Z,101685.79
2018-07-06T13:10:41.893Z,101706.62
2018-07-06T13:13:10.360Z,101693.86
2018-07-06T13:15:38.853Z,101687.33
2018-07-06T13:18:07.366Z,101705.06
2018-07-06T13:20:35.645Z,101691.84
2018-07-06T13:23:03.993Z,101712.27
2018-07-06T13:25:32.285Z,101715.45
2018-07-06T13:28:00.774Z,101700.34
2018-07-06T13:30:30.181Z,101711.63
2018-07-06T13:32:58.534Z,101701.89
2018-07-06T13:35:26.873Z,101703.97
2018-07-06T13:37:56.210Z,101699.64
2018-07-06T13:40:24.534Z,101699.84
2018-07-06T13:42:52.845Z,101714.64
2018-07-06T13:45:21.158Z,101710.20
2018-07-06T13:47:49.449Z,101713.67
2018-07-06T13:50:17.734Z,101688.06
2018-07-06T13:52:46.015Z,101726.36
2018-07-06T13:55:14.282Z,101710.77
2018-07-06T13:57:42.566Z,101717.69
2018-07-06T14:00:10.897Z,101713.09
2018-07-06T14:02:39.254Z,101706.92
2018-07-06T14:05:07.561Z,101717.91
2018-07-06T14:07:35.924Z,101724.62
2018-07-06T14:10:04.233Z,101732.05
2018-07-06T14:12:32.565Z,101713.95
2018-07-06T14:15:00.870Z,101692.75
2018-07-06T14:17:29.177Z,101712.06
2018-07-06T14:19:57.453Z,101735.40
2018-07-06T14:22:25.743Z,101742.52
2018-07-06T14:24:54.010Z,101739.53
2018-07-06T14:27:22.293Z,101739.53
2018-07-06T14:29:50.598Z,101743.16
2018-07-06T14:32:18.909Z,101745.48
2018-07-06T14:34:47.197Z,101734.78
2018-07-06T14:37:15.609Z,101707.94
2018-07-06T14:39:43.893Z,101745.94
2018-07-06T14:42:12.192Z,101738.91
2018-07-06T14:44:40.456Z,101742.58
2018-07-06T14:47:08.786Z,101744.66
2018-07-06T14:49:37.358Z,101746.48
2018-07-06T14:52:05.660Z,101755.89
2018-07-06T14:54:33.921Z,101748.27
2018-07-06T14:57:02.210Z,101763.88
2018-07-06T14:59:30.494Z,101757.84
2018-07-06T15:01:58.913Z,101759.53
2018-07-06T15:04:27.315Z,101761.18
2018-07-06T15:06:55.639Z,101759.55
2018-07-06T15:09:23.931Z,101740.68
2018-07-06T15:11:52.385Z,101769.37
2018-07-06T15:14:20.913Z,101775.65
2018-07-06T15:16:49.181Z,101778.69
2018-07-06T15:19:17.461Z,101769.15
2018-07-06T15:21:45.940Z,101775.87
2018-07-06T15:24:14.351Z,101776.23
2018-07-06T15:26:42.685Z,101786.80
2018-07-06T15:29:12.151Z,101802.80
2018-07-06T15:31:40.469Z,101804.66
2018-07-06T15:34:08.783Z,101790.96
2018-07-06T15:36:37.105Z,101774.25
2018-07-06T15:39:05.843Z,101783.08
2018-07-06T15:41:34.121Z,101799.78
2018-07-06T15:44:02.583Z,101814.11
2018-07-06T15:46:30.853Z,101805.57
2018-07-06T15:48:59.205Z,101802.22
2018-07-06T15:51:27.553Z,101805.63
2018-07-06T15:53:55.825Z,101794.05
2018-07-06T15:56:24.095Z,101803.88
2018-07-06T15:58:52.469Z,101808.52
2018-07-06T16:01:20.737Z,101796.20
2018-07-06T16:03:49.008Z,101812.73
2018-07-06T16:06:17.670Z,101827.98
2018-07-06T16:08:45.936Z,101847.64
2018-07-06T16:11:14.309Z,101820.06
2018-07-06T16:13:43.112Z,101813.53
2018-07-06T16:16:11.421Z,101812.05
2018-07-06T16:18:39.745Z,101810.53
2018-07-06T16:21:08.090Z,101799.97
2018-07-06T16:23:36.513Z,101815.16
2018-07-06T16:26:04.837Z,101816.27
2018-07-06T16:28:33.166Z,101816.58
2018-07-06T16:31:01.525Z,101806.52
2018-07-06T16:33:29.953Z,101816.73
2018-07-06T16:35:58.249Z,101838.13
2018-07-06T16:38:26.505Z,101824.58
2018-07-06T16:40:54.800Z,101821.92
2018-07-06T16:43:23.131Z,101825.63
2018-07-06T16:45:51.533Z,101826.05
2018-07-06T16:48:19.821Z,101817.18
2018-07-06T16:50:48.090Z,101812.56
2018-07-06T16:53:16.397Z,101815.14
2018-07-06T16:55:44.697Z,101816.36
2018-07-06T16:58:12.990Z,101829.24
2018-07-06T17:00:41.293Z,101826.80
2018-07-06T17:03:09.588Z,101835.14
2018-07-06T17:05:37.865Z,101829.99
2018-07-06T17:08:06.297Z,101827.45
2018-07-06T17:10:34.557Z,101820.84
2018-07-06T17:13:02.825Z,101826.25
2018-07-06T17:15:31.153Z,101806.27
2018-07-06T17:17:59.950Z,101842.61
2018-07-06T17:20:28.322Z,101832.08
2018-07-06T17:22:56.733Z,101834.34
2018-07-06T17:25:25.001Z,101832.93
2018-07-06T17:27:53.487Z,101839.44
2018-07-06T17:30:21.677Z,101842.16
2018-07-06T17:32:50.000Z,101848.12
2018-07-06T17:35:18.389Z,101847.47
2018-07-06T17:37:47.817Z,101844.42
2018-07-06T17:40:16.077Z,101871.14
2018-07-06T17:42:44.413Z,101856.52
2018-07-06T17:45:12.803Z,101847.41
2018-07-06T17:47:41.069Z,101863.54
2018-07-06T17:50:09.486Z,101859.06
2018-07-06T17:52:37.749Z,101856.34
2018-07-06T17:55:06.446Z,101865.41
2018-07-06T17:57:34.786Z,101868.56
2018-07-06T18:00:03.162Z,101865.14
2018-07-06T18:02:31.438Z,101865.48
2018-07-06T18:04:59.721Z,101866.09
2018-07-06T18:07:28.033Z,101869.52
2018-07-06T18:09:56.289Z,101880.23
2018-07-06T18:12:24.549Z,101878.13
2018-07-06T18:14:52.864Z,101875.83
2018-07-06T18:17:21.333Z,101889.42
2018-07-06T18:19:49.641Z,101881.92
2018-07-06T18:22:17.967Z,101878.14
2018-07-06T18:24:46.253Z,101876.48
2018-07-06T18:27:14.538Z,101882.52
2018-07-06T18:29:42.904Z,101877.13
2018-07-06T18:32:11.259Z,101898.63
2018-07-06T18:34:39.549Z,101906.52
2018-07-06T18:37:08.853Z,101885.40
2018-07-06T18:39:37.158Z,101876.12
2018-07-06T18:42:05.517Z,101882.14
2018-07-06T18:44:33.806Z,101880.37
2018-07-06T18:47:02.099Z,101879.12
2018-07-06T18:49:30.354Z,101879.50
2018-07-06T18:51:58.746Z,101874.58
2018-07-06T18:54:27.157Z,101882.13
2018-07-06T18:56:55.461Z,101869.76
2018-07-06T18:59:23.727Z,101884.64
2018-07-06T19:01:52.045Z,101876.14
2018-07-06T19:04:20.390Z,101872.00
2018-07-06T19:06:48.931Z,101879.30
2018-07-06T19:09:17.192Z,101886.17
2018-07-06T19:11:45.493Z,101875.79
2018-07-06T19:14:13.765Z,101892.23
2018-07-06T19:16:42.065Z,101891.52
2018-07-06T19:19:10.354Z,101887.15
2018-07-06T19:21:38.637Z,101895.48
2018-07-06T19:24:06.945Z,101890.88
2018-07-06T19:26:35.249Z,101893.38
2018-07-06T19:29:03.530Z,101894.55
2018-07-06T19:31:31.813Z,101894.59
2018-07-06T19:34:00.106Z,101896.65
2018-07-06T19:36:28.377Z,101899.77
2018-07-06T19:38:56.657Z,101899.03
2018-07-06T19:41:24.937Z,101909.61
2018-07-06T19:43:53.259Z,101905.13
2018-07-06T19:46:21.529Z,101911.11
2018-07-06T19:48:49.806Z,101913.24
2018-07-06T19:51:18.089Z,101918.53
2018-07-06T19:53:46.365Z,101928.41
2018-07-06T19:56:14.649Z,101920.55
2018-07-06T19:58:42.937Z,101930.35
2018-07-06T20:01:11.201Z,101932.79
2018-07-06T20:03:39.533Z,101933.38
2018-07-06T20:06:07.809Z,101936.02
2018-07-06T20:08:37.155Z,101937.69
2018-07-06T20:11:05.413Z,101934.63
2018-07-06T20:13:33.766Z,101943.59
2018-07-06T20:16:02.041Z,101941.39
2018-07-06T20:18:30.389Z,101941.34
2018-07-06T20:20:59.137Z,101948.61
2018-07-06T20:23:27.577Z,101942.23
2018-07-06T20:25:55.864Z,101948.07
2018-07-06T20:28:24.129Z,101946.89
2018-07-06T20:30:52.401Z,101941.02
2018-07-06T20:33:20.693Z,101940.38
2018-07-06T20:35:48.960Z,101946.29
2018-07-06T20:38:17.216Z,101939.71
2018-07-06T20:40:45.819Z,101937.19
2018-07-06T20:43:14.084Z,101941.43
2018-07-06T20:45:42.516Z,101934.08
2018-07-06T20:48:10.959Z,101939.78
2018-07-06T20:50:39.245Z,101929.48
2018-07-06T20:53:07.510Z,101946.73
2018-07-06T20:55:35.821Z,101937.84
2018-07-06T20:58:04.105Z,101935.95
2018-07-06T21:00:32.381Z,101939.69
2018-07-06T21:03:00.732Z,101937.76
2018-07-06T21:05:28.995Z,101937.41
2018-07-06T21:08:03.809Z,101930.70
2018-07-06T21:10:32.065Z,101926.50
2018-07-06T21:13:00.333Z,101937.51
2018-07-06T21:15:28.645Z,101934.87
2018-07-06T21:17:56.929Z,101935.84
2018-07-06T21:20:25.197Z,101932.28
2018-07-06T21:22:53.549Z,101937.07
2018-07-06T21:25:21.968Z,101940.83
2018-07-06T21:27:50.434Z,101947.42
2018-07-06T21:30:18.701Z,101933.89
2018-07-06T21:32:46.981Z,101952.20
2018-07-06T21:35:15.278Z,101957.62
2018-07-06T21:37:43.569Z,101956.80
2018-07-06T21:40:11.881Z,101954.86
2018-07-06T21:42:40.190Z,101957.75
2018-07-06T21:45:08.480Z,101954.98
2018-07-06T21:47:36.854Z,101966.15
2018-07-06T21:50:05.309Z,101957.02
2018-07-06T21:52:33.734Z,101963.25
2018-07-06T21:55:02.066Z,101960.27
2018-07-06T21:57:30.369Z,101967.83
2018-07-06T21:59:58.760Z,101955.13
2018-07-06T22:02:27.053Z,101966.15
2018-07-06T22:04:55.365Z,101958.98
2018-07-06T22:07:23.634Z,101963.17
2018-07-06T22:09:51.910Z,101962.95
2018-07-06T22:12:20.206Z,101957.88
2018-07-06T22:14:48.470Z,101954.53
2018-07-06T22:17:16.761Z,101951.32
2018-07-06T22:19:45.068Z,101954.79
2018-07-06T22:22:13.333Z,101956.72
2018-07-06T22:24:41.701Z,101963.05
2018-07-06T22:27:10.050Z,101960.06
2018-07-06T22:29:38.342Z,101958.39
2018-07-06T22:32:07.697Z,101955.85
2018-07-06T22:34:35.985Z,101964.15
2018-07-06T22:37:04.285Z,101960.45
2018-07-06T22:39:33.668Z,101954.57
2018-07-06T22:42:02.298Z,101971.83
2018-07-06T22:44:30.594Z,101955.05
2018-07-06T22:46:58.873Z,101958.55
2018-07-06T22:49:27.433Z,101964.53
2018-07-06T22:51:55.714Z,101970.98
2018-07-06T22:54:24.000Z,101960.45
2018-07-06T22:56:52.464Z,101966.23
2018-07-06T22:59:20.761Z,101971.59
2018-07-06T23:01:49.033Z,101974.23
2018-07-06T23:04:17.399Z,101962.76
2018-07-06T23:06:45.614Z,101968.38
2018-07-06T23:09:13.881Z,101969.34
2018-07-06T23:11:42.211Z,101968.86
2018-07-06T23:14:10.514Z,101969.45
2018-07-06T23:16:38.817Z,101969.81
2018-07-06T23:19:07.183Z,101966.22
2018-07-06T23:21:35.477Z,101947.67
2018-07-06T23:24:03.757Z,101960.46
2018-07-06T23:26:32.063Z,101965.73
2018-07-06T23:29:01.393Z,101970.75
2018-07-06T23:31:29.697Z,101957.14
2018-07-06T23:33:58.013Z,101963.95
2018-07-06T23:36:26.305Z,101969.32
2018-07-06T23:38:55.570Z,101970.05
2018-07-06T23:41:23.893Z,101969.83
2018-07-06T23:43:52.745Z,101973.99
2018-07-06T23:46:21.026Z,101969.83
2018-07-06T23:48:51.528Z,101972.55
2018-07-06T23:51:19.964Z,101972.80
2018-07-06T23:53:48.329Z,101968.63
2018-07-06T23:56:18.085Z,101971.61
2018-07-06T23:58:46.393Z,101976.27
